Time,TemperatureF,DewpointF,PressureIn,WindDirection,WindDirectionDegrees,WindSpeedMPH,WindSpeedGustMPH,Humidity,HourlyPrecipIn,Conditions,Clouds,dailyrainin,SoftwareType,DateUTC
2016-02-07 00:12:00,29.8,20.0,30.17,South,172,4.0,7.0,67,0.00,,,0.00,weatherlink.com 1.10,2016-02-07 05:12:00,
2016-02-07 00:27:00,29.9,20.0,30.16,SSW,192,5.0,7.0,68,0.00,,,0.00,weatherlink.com 1.10,2016-02-07 05:27:00,
2016-02-07 00:42:00,30.4,21.0,30.16,SSW,209,6.0,7.0,67,0.00,,,0.00,weatherlink.com 1.10,2016-02-07 05:42:00,
2016-02-07 00:57:00,30.6,21.0,30.16,SW,216,5.0,8.0,67,0.00,,,0.00,weatherlink.com 1.10,2016-02-07 05:57:00,
2016-02-07 01:12:00,30.4,21.0,30.15,SSW,201,5.0,7.0,67,0.00,,,0.00,weatherlink.com 1.10,2016-02-07 06:12:00,
2016-02-07 01:27:00,30.2,20.0,30.15,SW,214,4.0,8.0,67,0.00,,,0.00,weatherlink.com 1.10,2016-02-07 06:27:00,
2016-02-07 01:42:00,29.9,20.0,30.15,SSW,194,5.0,7.0,67,0.00,,,0.00,weatherlink.com 1.10,2016-02-07 06:42:00,
2016-02-07 01:57:00,29.5,20.0,30.15,SSW,197,6.0,7.0,68,0.00,,,0.00,weatherlink.com 1.10,2016-02-07 06:57:00,
2016-02-07 02:12:00,29.1,20.0,30.15,SSW,198,4.0,6.0,69,0.00,,,0.00,weatherlink.com 1.10,2016-02-07 07:12:00,
2016-02-07 02:27:00,29.0,20.0,30.15,SSW,208,4.0,7.0,68,0.00,,,0.00,weatherlink.com 1.10,2016-02-07 07:27:00,
2016-02-07 02:57:00,28.8,19.0,30.15,SSW,199,5.0,8.0,68,0.00,,,0.00,weatherlink.com 1.10,2016-02-07 07:57:00,
2016-02-07 03:12:00,28.0,19.0,30.14,South,176,4.0,5.0,70,0.00,,,0.00,weatherlink.com 1.10,2016-02-07 08:12:00,
2016-02-07 03:27:00,27.7,19.0,30.15,South,182,3.0,5.0,70,0.00,,,0.00,weatherlink.com 1.10,2016-02-07 08:27:00,
2016-02-07 03:42:00,27.8,19.0,30.14,South,184,5.0,7.0,70,0.00,,,0.00,weatherlink.com 1.10,2016-02-07 08:42:00,
2016-02-07 03:57:00,28.0,19.0,30.14,South,188,6.0,7.0,70,0.00,,,0.00,weatherlink.com 1.10,2016-02-07 08:57:00,
2016-02-07 04:27:00,28.0,19.0,30.13,SSW,198,6.0,7.0,69,0.00,,,0.00,weatherlink.com 1.10,2016-02-07 09:27:00,
2016-02-07 04:42:00,27.9,19.0,30.13,SSW,192,4.0,7.0,70,0.00,,,0.00,weatherlink.com 1.10,2016-02-07 09:42:00,
2016-02-07 04:57:00,27.7,19.0,30.13,SSW,197,5.0,7.0,70,0.00,,,0.00,weatherlink.com 1.10,2016-02-07 09:57:00,
2016-02-07 05:12:00,28.0,19.0,30.12,SSW,194,4.0,7.0,70,0.00,,,0.00,weatherlink.com 1.10,2016-02-07 10:12:00,
2016-02-07 05:27:00,28.0,20.0,30.11,SSW,193,6.0,6.0,71,0.00,,,0.00,weatherlink.com 1.10,2016-02-07 10:27:00,
2016-02-07 05:42:00,27.9,20.0,30.11,South,186,4.0,6.0,71,0.00,,,0.00,weatherlink.com 1.10,2016-02-07 10:42:00,
2016-02-07 05:57:00,27.6,20.0,30.10,South,181,5.0,6.0,72,0.00,,,0.00,weatherlink.com 1.10,2016-02-07 10:57:00,
2016-02-07 06:13:00,27.8,20.0,30.10,South,185,5.0,5.0,72,0.00,,,0.00,weatherlink.com 1.10,2016-02-07 11:13:00,
2016-02-07 06:28:00,27.3,20.0,30.09,South,186,3.0,6.0,74,0.00,,,0.00,weatherlink.com 1.10,2016-02-07 11:28:00,
2016-02-07 06:43:00,27.6,20.0,30.09,South,171,3.0,4.0,73,0.00,,,0.00,weatherlink.com 1.10,2016-02-07 11:43:00,
2016-02-07 06:58:00,27.2,20.0,30.09,South,173,3.0,5.0,75,0.00,,,0.00,weatherlink.com 1.10,2016-02-07 11:58:00,
2016-02-07 07:13:00,26.6,20.0,30.08,South,172,5.0,5.0,76,0.00,,,0.00,weatherlink.com 1.10,2016-02-07 12:13:00,
2016-02-07 07:28:00,26.4,20.0,30.08,SSE,158,5.0,6.0,77,0.00,,,0.00,weatherlink.com 1.10,2016-02-07 12:28:00,
2016-02-07 07:43:00,26.7,20.0,30.08,SE,144,5.0,7.0,77,0.00,,,0.00,weatherlink.com 1.10,2016-02-07 12:43:00,
2016-02-07 07:58:00,26.7,21.0,30.07,SSE,161,4.0,6.0,78,0.00,,,0.00,weatherlink.com 1.10,2016-02-07 12:58:00,
2016-02-07 08:13:00,27.3,21.0,30.08,South,170,6.0,9.0,77,0.00,,,0.00,weatherlink.com 1.10,2016-02-07 13:13:00,
2016-02-07 08:28:00,28.1,21.0,30.08,SE,145,6.0,9.0,76,0.00,,,0.00,weatherlink.com 1.10,2016-02-07 13:28:00,
2016-02-07 08:43:00,28.8,22.0,30.07,South,171,7.0,11.0,75,0.00,,,0.00,weatherlink.com 1.10,2016-02-07 13:43:00,
2016-02-07 08:58:00,29.7,22.0,30.07,SSE,153,8.0,11.0,74,0.00,,,0.00,weatherlink.com 1.10,2016-02-07 13:58:00,
2016-02-07 09:13:00,30.8,23.0,30.07,SSE,157,7.0,13.0,73,0.00,,,0.00,weatherlink.com 1.10,2016-02-07 14:13:00,
2016-02-07 09:28:00,32.1,24.0,30.07,South,171,6.0,10.0,72,0.00,,,0.00,weatherlink.com 1.10,2016-02-07 14:28:00,
2016-02-07 09:43:00,32.7,24.0,30.06,SSE,154,7.0,15.0,70,0.00,,,0.00,weatherlink.com 1.10,2016-02-07 14:43:00,
2016-02-07 10:13:00,33.9,25.0,30.05,SSE,165,8.0,14.0,69,0.00,,,0.00,weatherlink.com 1.10,2016-02-07 15:13:00,
2016-02-07 10:28:00,33.8,25.0,30.05,South,186,9.0,17.0,70,0.00,,,0.00,weatherlink.com 1.10,2016-02-07 15:28:00,
2016-02-07 10:43:00,34.8,26.0,30.05,SSE,167,11.0,18.0,69,0.00,,,0.00,weatherlink.com 1.10,2016-02-07 15:43:00,
2016-02-07 10:58:00,35.9,26.0,30.04,SSE,152,12.0,19.0,68,0.00,,,0.00,weatherlink.com 1.10,2016-02-07 15:58:00,
2016-02-07 11:13:00,36.9,27.0,30.05,SSE,156,10.0,16.0,67,0.00,,,0.00,weatherlink.com 1.10,2016-02-07 16:13:00,
2016-02-07 11:28:00,38.0,27.0,30.04,SSE,166,11.0,16.0,65,0.00,,,0.00,weatherlink.com 1.10,2016-02-07 16:28:00,
2016-02-07 11:43:00,38.8,28.0,30.03,SSE,159,9.0,17.0,65,0.00,,,0.00,weatherlink.com 1.10,2016-02-07 16:43:00,
2016-02-07 11:58:00,39.5,28.0,30.02,South,171,11.0,16.0,63,0.00,,,0.00,weatherlink.com 1.10,2016-02-07 16:58:00,
2016-02-07 12:13:00,40.0,27.0,30.00,SSW,192,13.0,15.0,61,0.00,,,0.00,weatherlink.com 1.10,2016-02-07 17:13:00,
2016-02-07 12:28:00,40.2,28.0,29.99,SSW,192,8.0,13.0,62,0.00,,,0.00,weatherlink.com 1.10,2016-02-07 17:28:00,
2016-02-07 12:44:00,41.3,29.0,29.99,SSE,158,10.0,14.0,61,0.00,,,0.00,weatherlink.com 1.10,2016-02-07 17:44:00,
2016-02-07 12:59:00,41.8,28.0,29.98,South,174,11.0,18.0,58,0.00,,,0.00,weatherlink.com 1.10,2016-02-07 17:59:00,
2016-02-07 13:14:00,43.0,28.0,29.97,SSE,162,10.0,22.0,56,0.00,,,0.00,weatherlink.com 1.10,2016-02-07 18:14:00,
2016-02-07 13:29:00,43.6,27.0,29.96,SSE,165,9.0,20.0,53,0.00,,,0.00,weatherlink.com 1.10,2016-02-07 18:29:00,